sensor_id;sensor_type;location;lat;lon;timestamp;P1;durP1;ratioP1;P2;durP2;ratioP2
66169;SDS011;52971;44.024;20.456;2022-09-13T00:00:08;3.78;;;3.00;;
66169;SDS011;52971;44.024;20.456;2022-09-13T00:02:34;5.20;;;3.25;;
66169;SDS011;52971;44.024;20.456;2022-09-13T00:05:00;6.70;;;3.85;;
66169;SDS011;52971;44.024;20.456;2022-09-13T00:07:25;6.70;;;2.83;;
66169;SDS011;52971;44.024;20.456;2022-09-13T00:09:50;7.90;;;3.35;;
66169;SDS011;52971;44.024;20.456;2022-09-13T00:12:16;5.70;;;2.88;;
66169;SDS011;52971;44.024;20.456;2022-09-13T00:14:41;6.72;;;3.15;;
66169;SDS011;52971;44.024;20.456;2022-09-13T00:17:07;3.95;;;2.83;;
66169;SDS011;52971;44.024;20.456;2022-09-13T00:19:32;4.38;;;2.72;;
66169;SDS011;52971;44.024;20.456;2022-09-13T00:21:58;5.97;;;2.83;;
66169;SDS011;52971;44.024;20.456;2022-09-13T00:24:23;4.80;;;2.95;;
66169;SDS011;52971;44.024;20.456;2022-09-13T00:26:49;5.97;;;3.25;;
66169;SDS011;52971;44.024;20.456;2022-09-13T00:29:14;7.10;;;2.75;;
66169;SDS011;52971;44.024;20.456;2022-09-13T00:31:39;3.22;;;2.38;;
66169;SDS011;52971;44.024;20.456;2022-09-13T00:34:05;4.88;;;2.78;;
66169;SDS011;52971;44.024;20.456;2022-09-13T00:36:30;4.50;;;2.45;;
66169;SDS011;52971;44.024;20.456;2022-09-13T00:38:56;3.22;;;2.47;;
66169;SDS011;52971;44.024;20.456;2022-09-13T00:41:23;4.38;;;2.50;;
66169;SDS011;52971;44.024;20.456;2022-09-13T00:43:49;6.25;;;2.80;;
66169;SDS011;52971;44.024;20.456;2022-09-13T00:46:20;3.47;;;2.05;;
66169;SDS011;52971;44.024;20.456;2022-09-13T00:48:52;4.85;;;3.10;;
66169;SDS011;52971;44.024;20.456;2022-09-13T00:51:21;5.93;;;2.83;;
66169;SDS011;52971;44.024;20.456;2022-09-13T00:53:48;4.95;;;2.85;;
66169;SDS011;52971;44.024;20.456;2022-09-13T00:56:32;2.60;;;2.20;;
66169;SDS011;52971;44.024;20.456;2022-09-13T00:59:05;6.50;;;2.83;;
66169;SDS011;52971;44.024;20.456;2022-09-13T01:01:43;5.47;;;3.00;;
66169;SDS011;52971;44.024;20.456;2022-09-13T01:04:13;4.28;;;2.50;;
66169;SDS011;52971;44.024;20.456;2022-09-13T01:06:41;3.15;;;2.50;;
66169;SDS011;52971;44.024;20.456;2022-09-13T01:09:08;7.45;;;3.10;;
66169;SDS011;52971;44.024;20.456;2022-09-13T01:11:44;5.60;;;2.90;;
66169;SDS011;52971;44.024;20.456;2022-09-13T01:14:14;4.55;;;2.35;;
66169;SDS011;52971;44.024;20.456;2022-09-13T01:16:41;3.17;;;2.67;;
66169;SDS011;52971;44.024;20.456;2022-09-13T01:19:07;5.45;;;2.60;;
66169;SDS011;52971;44.024;20.456;2022-09-13T01:24:44;4.95;;;2.85;;
66169;SDS011;52971;44.024;20.456;2022-09-13T01:30:05;4.18;;;2.47;;
66169;SDS011;52971;44.024;20.456;2022-09-13T01:32:48;5.10;;;2.58;;
66169;SDS011;52971;44.024;20.456;2022-09-13T01:43:55;6.30;;;2.83;;
66169;SDS011;52971;44.024;20.456;2022-09-13T01:46:47;3.13;;;2.22;;
66169;SDS011;52971;44.024;20.456;2022-09-13T01:52:21;4.35;;;2.53;;
66169;SDS011;52971;44.024;20.456;2022-09-13T01:57:42;5.57;;;2.55;;
66169;SDS011;52971;44.024;20.456;2022-09-13T02:00:15;4.15;;;2.50;;
66169;SDS011;52971;44.024;20.456;2022-09-13T02:02:53;5.65;;;2.17;;
66169;SDS011;52971;44.024;20.456;2022-09-13T02:05:38;5.25;;;2.67;;
66169;SDS011;52971;44.024;20.456;2022-09-13T02:08:11;6.80;;;2.90;;
66169;SDS011;52971;44.024;20.456;2022-09-13T02:10:41;3.58;;;2.42;;
66169;SDS011;52971;44.024;20.456;2022-09-13T02:13:15;3.38;;;2.35;;
66169;SDS011;52971;44.024;20.456;2022-09-13T02:15:55;5.75;;;2.45;;
66169;SDS011;52971;44.024;20.456;2022-09-13T02:18:29;5.15;;;3.13;;
66169;SDS011;52971;44.024;20.456;2022-09-13T02:21:00;3.30;;;2.88;;
66169;SDS011;52971;44.024;20.456;2022-09-13T02:23:33;3.78;;;2.35;;
66169;SDS011;52971;44.024;20.456;2022-09-13T02:26:05;2.37;;;2.17;;
66169;SDS011;52971;44.024;20.456;2022-09-13T02:28:37;4.82;;;2.30;;
66169;SDS011;52971;44.024;20.456;2022-09-13T02:31:09;7.25;;;2.75;;
66169;SDS011;52971;44.024;20.456;2022-09-13T02:33:59;3.58;;;2.50;;
66169;SDS011;52971;44.024;20.456;2022-09-13T02:36:28;3.58;;;2.60;;
66169;SDS011;52971;44.024;20.456;2022-09-13T02:39:00;5.22;;;3.10;;
66169;SDS011;52971;44.024;20.456;2022-09-13T02:41:31;6.05;;;2.80;;
66169;SDS011;52971;44.024;20.456;2022-09-13T02:44:02;3.92;;;2.42;;
66169;SDS011;52971;44.024;20.456;2022-09-13T02:46:53;3.42;;;2.72;;
66169;SDS011;52971;44.024;20.456;2022-09-13T02:57:31;3.80;;;2.50;;
66169;SDS011;52971;44.024;20.456;2022-09-13T03:00:03;5.15;;;2.92;;
66169;SDS011;52971;44.024;20.456;2022-09-13T03:02:32;4.68;;;2.55;;
66169;SDS011;52971;44.024;20.456;2022-09-13T03:04:59;4.28;;;2.63;;
66169;SDS011;52971;44.024;20.456;2022-09-13T03:07:25;3.35;;;2.28;;
66169;SDS011;52971;44.024;20.456;2022-09-13T03:09:56;5.05;;;2.33;;
66169;SDS011;52971;44.024;20.456;2022-09-13T03:20:52;3.78;;;2.67;;
66169;SDS011;52971;44.024;20.456;2022-09-13T03:23:49;4.55;;;2.47;;
66169;SDS011;52971;44.024;20.456;2022-09-13T03:34:33;1.95;;;1.77;;
66169;SDS011;52971;44.024;20.456;2022-09-13T03:40:27;6.13;;;2.38;;
66169;SDS011;52971;44.024;20.456;2022-09-13T03:45:37;4.50;;;2.75;;
66169;SDS011;52971;44.024;20.456;2022-09-13T03:48:07;7.43;;;2.50;;
66169;SDS011;52971;44.024;20.456;2022-09-13T03:50:34;4.30;;;2.22;;
66169;SDS011;52971;44.024;20.456;2022-09-13T03:53:06;6.38;;;2.10;;
66169;SDS011;52971;44.024;20.456;2022-09-13T03:55:36;6.13;;;2.42;;
66169;SDS011;52971;44.024;20.456;2022-09-13T03:58:04;3.38;;;2.35;;
66169;SDS011;52971;44.024;20.456;2022-09-13T04:00:30;7.45;;;2.55;;
66169;SDS011;52971;44.024;20.456;2022-09-13T04:02:55;4.35;;;2.60;;
66169;SDS011;52971;44.024;20.456;2022-09-13T04:05:21;4.35;;;2.05;;
66169;SDS011;52971;44.024;20.456;2022-09-13T04:07:46;5.65;;;2.33;;
66169;SDS011;52971;44.024;20.456;2022-09-13T04:10:12;4.03;;;2.47;;
66169;SDS011;52971;44.024;20.456;2022-09-13T04:12:38;3.65;;;2.65;;
66169;SDS011;52971;44.024;20.456;2022-09-13T04:15:05;5.18;;;2.38;;
66169;SDS011;52971;44.024;20.456;2022-09-13T04:17:31;3.10;;;2.50;;
66169;SDS011;52971;44.024;20.456;2022-09-13T04:19:57;7.10;;;2.38;;
66169;SDS011;52971;44.024;20.456;2022-09-13T04:22:22;3.15;;;2.45;;
66169;SDS011;52971;44.024;20.456;2022-09-13T04:24:47;4.43;;;2.50;;
66169;SDS011;52971;44.024;20.456;2022-09-13T04:27:13;5.90;;;2.50;;
66169;SDS011;52971;44.024;20.456;2022-09-13T04:29:38;6.07;;;2.22;;
66169;SDS011;52971;44.024;20.456;2022-09-13T04:32:04;5.25;;;2.08;;
66169;SDS011;52971;44.024;20.456;2022-09-13T04:34:29;3.92;;;2.70;;
66169;SDS011;52971;44.024;20.456;2022-09-13T04:36:55;4.45;;;2.53;;
66169;SDS011;52971;44.024;20.456;2022-09-13T04:39:21;5.57;;;2.63;;
66169;SDS011;52971;44.024;20.456;2022-09-13T04:41:48;8.30;;;2.70;;
66169;SDS011;52971;44.024;20.456;2022-09-13T04:44:14;4.30;;;3.28;;
66169;SDS011;52971;44.024;20.456;2022-09-13T04:46:41;5.15;;;2.88;;
66169;SDS011;52971;44.024;20.456;2022-09-13T04:49:10;4.82;;;2.60;;
66169;SDS011;52971;44.024;20.456;2022-09-13T04:51:36;4.68;;;2.90;;
66169;SDS011;52971;44.024;20.456;2022-09-13T04:54:01;3.25;;;2.42;;
66169;SDS011;52971;44.024;20.456;2022-09-13T04:56:27;4.97;;;2.90;;
66169;SDS011;52971;44.024;20.456;2022-09-13T04:58:53;3.10;;;2.45;;
66169;SDS011;52971;44.024;20.456;2022-09-13T05:01:20;7.97;;;3.10;;
66169;SDS011;52971;44.024;20.456;2022-09-13T05:03:47;6.07;;;2.60;;
66169;SDS011;52971;44.024;20.456;2022-09-13T05:06:14;6.10;;;2.83;;
66169;SDS011;52971;44.024;20.456;2022-09-13T05:08:44;4.55;;;3.05;;
66169;SDS011;52971;44.024;20.456;2022-09-13T05:11:14;5.20;;;3.35;;
66169;SDS011;52971;44.024;20.456;2022-09-13T05:13:39;6.93;;;3.13;;
66169;SDS011;52971;44.024;20.456;2022-09-13T05:16:05;4.95;;;3.03;;
66169;SDS011;52971;44.024;20.456;2022-09-13T05:18:32;6.82;;;3.20;;
66169;SDS011;52971;44.024;20.456;2022-09-13T05:20:59;5.38;;;3.28;;
66169;SDS011;52971;44.024;20.456;2022-09-13T05:23:27;4.80;;;3.38;;
66169;SDS011;52971;44.024;20.456;2022-09-13T05:25:53;8.40;;;3.28;;
66169;SDS011;52971;44.024;20.456;2022-09-13T05:28:20;6.53;;;3.35;;
66169;SDS011;52971;44.024;20.456;2022-09-13T05:31:21;7.00;;;3.53;;
66169;SDS011;52971;44.024;20.456;2022-09-13T05:33:42;11.10;;;3.78;;
66169;SDS011;52971;44.024;20.456;2022-09-13T05:36:09;21.70;;;7.20;;
66169;SDS011;52971;44.024;20.456;2022-09-13T05:38:35;10.45;;;8.15;;
66169;SDS011;52971;44.024;20.456;2022-09-13T05:41:01;10.75;;;7.00;;
66169;SDS011;52971;44.024;20.456;2022-09-13T05:43:28;8.50;;;4.60;;
66169;SDS011;52971;44.024;20.456;2022-09-13T05:46:05;6.03;;;4.28;;
66169;SDS011;52971;44.024;20.456;2022-09-13T05:48:34;8.88;;;4.75;;
66169;SDS011;52971;44.024;20.456;2022-09-13T05:51:07;7.38;;;4.55;;
66169;SDS011;52971;44.024;20.456;2022-09-13T05:53:34;8.10;;;4.87;;
66169;SDS011;52971;44.024;20.456;2022-09-13T05:56:02;7.15;;;4.30;;
66169;SDS011;52971;44.024;20.456;2022-09-13T05:58:27;8.00;;;4.88;;
66169;SDS011;52971;44.024;20.456;2022-09-13T06:00:53;10.23;;;5.32;;
66169;SDS011;52971;44.024;20.456;2022-09-13T06:03:22;10.13;;;4.55;;
66169;SDS011;52971;44.024;20.456;2022-09-13T06:05:48;9.40;;;4.80;;
66169;SDS011;52971;44.024;20.456;2022-09-13T06:08:14;9.55;;;4.25;;
66169;SDS011;52971;44.024;20.456;2022-09-13T06:10:40;9.70;;;4.22;;
66169;SDS011;52971;44.024;20.456;2022-09-13T06:13:05;6.82;;;4.32;;
66169;SDS011;52971;44.024;20.456;2022-09-13T06:15:31;5.25;;;3.22;;
66169;SDS011;52971;44.024;20.456;2022-09-13T06:17:56;19.27;;;5.18;;
66169;SDS011;52971;44.024;20.456;2022-09-13T06:20:22;5.32;;;3.22;;
66169;SDS011;52971;44.024;20.456;2022-09-13T06:22:48;5.60;;;3.03;;
66169;SDS011;52971;44.024;20.456;2022-09-13T06:25:13;4.18;;;2.47;;
66169;SDS011;52971;44.024;20.456;2022-09-13T06:27:39;4.47;;;3.03;;
66169;SDS011;52971;44.024;20.456;2022-09-13T06:30:05;4.25;;;3.58;;
66169;SDS011;52971;44.024;20.456;2022-09-13T06:32:33;4.90;;;2.65;;
66169;SDS011;52971;44.024;20.456;2022-09-13T06:35:01;5.80;;;3.10;;
66169;SDS011;52971;44.024;20.456;2022-09-13T06:37:26;4.78;;;2.90;;
66169;SDS011;52971;44.024;20.456;2022-09-13T06:39:52;6.40;;;3.13;;
66169;SDS011;52971;44.024;20.456;2022-09-13T06:42:17;4.75;;;3.33;;
66169;SDS011;52971;44.024;20.456;2022-09-13T06:44:43;4.40;;;2.60;;
66169;SDS011;52971;44.024;20.456;2022-09-13T06:47:10;5.07;;;3.10;;
66169;SDS011;52971;44.024;20.456;2022-09-13T06:49:36;4.88;;;2.70;;
66169;SDS011;52971;44.024;20.456;2022-09-13T06:52:02;6.43;;;2.88;;
66169;SDS011;52971;44.024;20.456;2022-09-13T06:54:27;4.60;;;2.50;;
66169;SDS011;52971;44.024;20.456;2022-09-13T06:56:53;5.80;;;3.47;;
66169;SDS011;52971;44.024;20.456;2022-09-13T06:59:18;4.93;;;2.85;;
66169;SDS011;52971;44.024;20.456;2022-09-13T07:01:44;3.15;;;2.65;;
66169;SDS011;52971;44.024;20.456;2022-09-13T07:04:10;3.90;;;2.90;;
66169;SDS011;52971;44.024;20.456;2022-09-13T07:06:39;4.57;;;2.03;;
66169;SDS011;52971;44.024;20.456;2022-09-13T07:09:07;5.00;;;2.75;;
66169;SDS011;52971;44.024;20.456;2022-09-13T07:11:38;5.80;;;3.15;;
66169;SDS011;52971;44.024;20.456;2022-09-13T07:14:04;8.05;;;2.90;;
66169;SDS011;52971;44.024;20.456;2022-09-13T07:16:34;4.40;;;3.08;;
66169;SDS011;52971;44.024;20.456;2022-09-13T07:19:02;2.80;;;1.88;;
66169;SDS011;52971;44.024;20.456;2022-09-13T07:21:33;7.32;;;3.33;;
66169;SDS011;52971;44.024;20.456;2022-09-13T07:24:00;5.47;;;2.42;;
66169;SDS011;52971;44.024;20.456;2022-09-13T07:26:26;2.88;;;2.03;;
66169;SDS011;52971;44.024;20.456;2022-09-13T07:28:52;6.22;;;2.40;;
66169;SDS011;52971;44.024;20.456;2022-09-13T07:31:24;4.45;;;2.55;;
66169;SDS011;52971;44.024;20.456;2022-09-13T07:33:55;5.97;;;1.98;;
66169;SDS011;52971;44.024;20.456;2022-09-13T07:36:22;2.58;;;1.98;;
66169;SDS011;52971;44.024;20.456;2022-09-13T07:38:48;5.05;;;2.30;;
66169;SDS011;52971;44.024;20.456;2022-09-13T07:41:15;2.95;;;1.27;;
66169;SDS011;52971;44.024;20.456;2022-09-13T07:43:42;5.53;;;2.53;;
66169;SDS011;52971;44.024;20.456;2022-09-13T07:46:12;3.70;;;2.33;;
66169;SDS011;52971;44.024;20.456;2022-09-13T07:48:40;2.33;;;1.70;;
66169;SDS011;52971;44.024;20.456;2022-09-13T07:51:11;4.72;;;1.90;;
66169;SDS011;52971;44.024;20.456;2022-09-13T07:53:39;3.50;;;1.40;;
66169;SDS011;52971;44.024;20.456;2022-09-13T07:56:10;5.65;;;1.90;;
66169;SDS011;52971;44.024;20.456;2022-09-13T07:58:39;4.22;;;1.98;;
66169;SDS011;52971;44.024;20.456;2022-09-13T08:01:13;4.13;;;1.58;;
66169;SDS011;52971;44.024;20.456;2022-09-13T08:03:41;2.95;;;1.65;;
66169;SDS011;52971;44.024;20.456;2022-09-13T08:06:07;4.40;;;1.90;;
66169;SDS011;52971;44.024;20.456;2022-09-13T08:08:33;3.17;;;1.63;;
66169;SDS011;52971;44.024;20.456;2022-09-13T08:11:00;3.80;;;1.85;;
66169;SDS011;52971;44.024;20.456;2022-09-13T08:13:27;4.30;;;1.75;;
66169;SDS011;52971;44.024;20.456;2022-09-13T08:15:53;2.55;;;1.33;;
66169;SDS011;52971;44.024;20.456;2022-09-13T08:18:19;4.90;;;2.13;;
66169;SDS011;52971;44.024;20.456;2022-09-13T08:20:45;2.75;;;1.95;;
66169;SDS011;52971;44.024;20.456;2022-09-13T08:23:11;3.15;;;1.65;;
66169;SDS011;52971;44.024;20.456;2022-09-13T08:25:37;1.80;;;1.17;;
66169;SDS011;52971;44.024;20.456;2022-09-13T08:28:07;2.75;;;1.27;;
66169;SDS011;52971;44.024;20.456;2022-09-13T08:30:35;3.63;;;2.10;;
66169;SDS011;52971;44.024;20.456;2022-09-13T08:33:04;2.65;;;1.33;;
66169;SDS011;52971;44.024;20.456;2022-09-13T08:35:31;3.05;;;1.95;;
66169;SDS011;52971;44.024;20.456;2022-09-13T08:37:57;7.00;;;1.30;;
66169;SDS011;52971;44.024;20.456;2022-09-13T08:40:24;7.50;;;1.63;;
66169;SDS011;52971;44.024;20.456;2022-09-13T08:42:58;3.83;;;1.33;;
66169;SDS011;52971;44.024;20.456;2022-09-13T08:45:31;3.50;;;1.17;;
66169;SDS011;52971;44.024;20.456;2022-09-13T08:48:15;3.08;;;0.75;;
66169;SDS011;52971;44.024;20.456;2022-09-13T08:50:45;1.98;;;0.80;;
66169;SDS011;52971;44.024;20.456;2022-09-13T09:01:28;2.80;;;0.98;;
66169;SDS011;52971;44.024;20.456;2022-09-13T09:04:01;1.70;;;0.82;;
66169;SDS011;52971;44.024;20.456;2022-09-13T09:06:55;1.85;;;0.77;;
66169;SDS011;52971;44.024;20.456;2022-09-13T09:09:26;1.60;;;0.40;;
66169;SDS011;52971;44.024;20.456;2022-09-13T09:11:57;1.17;;;0.40;;
66169;SDS011;52971;44.024;20.456;2022-09-13T09:14:37;3.80;;;0.50;;
66169;SDS011;52971;44.024;20.456;2022-09-13T09:19:39;2.05;;;0.50;;
66169;SDS011;52971;44.024;20.456;2022-09-13T09:22:12;3.38;;;0.55;;
66169;SDS011;52971;44.024;20.456;2022-09-13T09:24:43;1.17;;;0.40;;
66169;SDS011;52971;44.024;20.456;2022-09-13T09:27:15;1.90;;;0.50;;
66169;SDS011;52971;44.024;20.456;2022-09-13T09:29:43;4.05;;;1.80;;
66169;SDS011;52971;44.024;20.456;2022-09-13T09:37:23;1.55;;;0.60;;
66169;SDS011;52971;44.024;20.456;2022-09-13T09:39:52;1.13;;;0.40;;
66169;SDS011;52971;44.024;20.456;2022-09-13T09:42:23;1.35;;;0.40;;
66169;SDS011;52971;44.024;20.456;2022-09-13T09:44:51;1.80;;;0.60;;
66169;SDS011;52971;44.024;20.456;2022-09-13T09:47:23;1.25;;;0.40;;
66169;SDS011;52971;44.024;20.456;2022-09-13T09:50:00;1.15;;;0.57;;
66169;SDS011;52971;44.024;20.456;2022-09-13T09:55:28;2.10;;;0.60;;
66169;SDS011;52971;44.024;20.456;2022-09-13T09:57:54;1.98;;;0.45;;
66169;SDS011;52971;44.024;20.456;2022-09-13T10:00:25;1.50;;;0.50;;
66169;SDS011;52971;44.024;20.456;2022-09-13T10:02:55;1.10;;;0.57;;
66169;SDS011;52971;44.024;20.456;2022-09-13T10:05:23;1.27;;;0.60;;
66169;SDS011;52971;44.024;20.456;2022-09-13T10:07:56;1.48;;;0.65;;
66169;SDS011;52971;44.024;20.456;2022-09-13T10:10:37;1.20;;;0.50;;
66169;SDS011;52971;44.024;20.456;2022-09-13T10:13:06;1.00;;;0.40;;
66169;SDS011;52971;44.024;20.456;2022-09-13T10:15:38;1.90;;;0.30;;
66169;SDS011;52971;44.024;20.456;2022-09-13T10:18:19;1.20;;;0.38;;
66169;SDS011;52971;44.024;20.456;2022-09-13T10:21:03;2.75;;;0.55;;
66169;SDS011;52971;44.024;20.456;2022-09-13T10:23:35;1.10;;;0.30;;
66169;SDS011;52971;44.024;20.456;2022-09-13T10:28:41;1.83;;;0.43;;
66169;SDS011;52971;44.024;20.456;2022-09-13T10:31:16;0.80;;;0.30;;
66169;SDS011;52971;44.024;20.456;2022-09-13T10:36:15;1.45;;;0.55;;
66169;SDS011;52971;44.024;20.456;2022-09-13T10:38:51;1.02;;;0.30;;
66169;SDS011;52971;44.024;20.456;2022-09-13T10:41:23;0.50;;;0.20;;
66169;SDS011;52971;44.024;20.456;2022-09-13T10:43:55;0.50;;;0.30;;
66169;SDS011;52971;44.024;20.456;2022-09-13T10:46:22;1.58;;;0.50;;
66169;SDS011;52971;44.024;20.456;2022-09-13T10:48:48;1.20;;;0.30;;
66169;SDS011;52971;44.024;20.456;2022-09-13T10:56:39;1.40;;;0.30;;
66169;SDS011;52971;44.024;20.456;2022-09-13T11:02:07;0.60;;;0.30;;
66169;SDS011;52971;44.024;20.456;2022-09-13T11:05:04;2.15;;;0.40;;
66169;SDS011;52971;44.024;20.456;2022-09-13T11:10:49;4.20;;;0.65;;
66169;SDS011;52971;44.024;20.456;2022-09-13T11:18:19;0.85;;;0.40;;
66169;SDS011;52971;44.024;20.456;2022-09-13T11:24:03;2.30;;;0.40;;
66169;SDS011;52971;44.024;20.456;2022-09-13T11:43:17;0.82;;;0.30;;
66169;SDS011;52971;44.024;20.456;2022-09-13T11:46:00;2.45;;;0.52;;
66169;SDS011;52971;44.024;20.456;2022-09-13T11:51:45;0.82;;;0.40;;
66169;SDS011;52971;44.024;20.456;2022-09-13T11:54:28;0.77;;;0.30;;
66169;SDS011;52971;44.024;20.456;2022-09-13T11:57:07;1.33;;;0.40;;
66169;SDS011;52971;44.024;20.456;2022-09-13T12:08:09;2.83;;;0.52;;
66169;SDS011;52971;44.024;20.456;2022-09-13T12:13:21;2.28;;;0.70;;
66169;SDS011;52971;44.024;20.456;2022-09-13T12:16:00;1.25;;;0.45;;
66169;SDS011;52971;44.024;20.456;2022-09-13T12:18:35;1.92;;;0.50;;
66169;SDS011;52971;44.024;20.456;2022-09-13T12:21:08;1.27;;;0.30;;
66169;SDS011;52971;44.024;20.456;2022-09-13T12:26:25;2.47;;;0.40;;
66169;SDS011;52971;44.024;20.456;2022-09-13T12:31:43;5.05;;;0.57;;
66169;SDS011;52971;44.024;20.456;2022-09-13T12:34:10;0.70;;;0.35;;
66169;SDS011;52971;44.024;20.456;2022-09-13T12:51:06;2.80;;;0.60;;
66169;SDS011;52971;44.024;20.456;2022-09-13T12:56:43;1.10;;;0.30;;
66169;SDS011;52971;44.024;20.456;2022-09-13T13:02:23;2.10;;;0.60;;
66169;SDS011;52971;44.024;20.456;2022-09-13T13:04:54;1.50;;;0.40;;
66169;SDS011;52971;44.024;20.456;2022-09-13T13:07:22;2.47;;;0.57;;
66169;SDS011;52971;44.024;20.456;2022-09-13T13:09:49;0.82;;;0.25;;
66169;SDS011;52971;44.024;20.456;2022-09-13T13:12:28;3.35;;;0.50;;
66169;SDS011;52971;44.024;20.456;2022-09-13T13:14:54;1.30;;;0.30;;
66169;SDS011;52971;44.024;20.456;2022-09-13T13:23:21;0.63;;;0.20;;
66169;SDS011;52971;44.024;20.456;2022-09-13T13:34:01;2.90;;;0.30;;
66169;SDS011;52971;44.024;20.456;2022-09-13T13:39:07;1.70;;;0.20;;
66169;SDS011;52971;44.024;20.456;2022-09-13T13:41:43;3.65;;;0.30;;
66169;SDS011;52971;44.024;20.456;2022-09-13T13:46:46;1.23;;;0.43;;
66169;SDS011;52971;44.024;20.456;2022-09-13T13:57:30;1.60;;;0.50;;
66169;SDS011;52971;44.024;20.456;2022-09-13T14:00:16;0.70;;;0.32;;
66169;SDS011;52971;44.024;20.456;2022-09-13T14:05:22;0.80;;;0.30;;
66169;SDS011;52971;44.024;20.456;2022-09-13T14:10:41;1.85;;;0.40;;
66169;SDS011;52971;44.024;20.456;2022-09-13T14:26:42;0.60;;;0.22;;
66169;SDS011;52971;44.024;20.456;2022-09-13T14:29:08;0.75;;;0.30;;
66169;SDS011;52971;44.024;20.456;2022-09-13T14:31:34;0.57;;;0.20;;
66169;SDS011;52971;44.024;20.456;2022-09-13T14:34:00;2.20;;;0.20;;
66169;SDS011;52971;44.024;20.456;2022-09-13T14:36:26;1.38;;;0.30;;
66169;SDS011;52971;44.024;20.456;2022-09-13T14:38:55;2.22;;;0.63;;
66169;SDS011;52971;44.024;20.456;2022-09-13T14:41:56;3.28;;;1.00;;
66169;SDS011;52971;44.024;20.456;2022-09-13T14:44:23;3.08;;;0.80;;
66169;SDS011;52971;44.024;20.456;2022-09-13T14:46:54;6.85;;;0.50;;
66169;SDS011;52971;44.024;20.456;2022-09-13T14:49:29;2.40;;;0.50;;
66169;SDS011;52971;44.024;20.456;2022-09-13T14:52:07;1.67;;;0.30;;
66169;SDS011;52971;44.024;20.456;2022-09-13T14:54:48;1.75;;;0.30;;
66169;SDS011;52971;44.024;20.456;2022-09-13T14:57:21;1.75;;;0.30;;
66169;SDS011;52971;44.024;20.456;2022-09-13T14:59:53;2.17;;;0.85;;
66169;SDS011;52971;44.024;20.456;2022-09-13T15:02:23;1.17;;;0.40;;
66169;SDS011;52971;44.024;20.456;2022-09-13T15:04:52;3.15;;;0.55;;
66169;SDS011;52971;44.024;20.456;2022-09-13T15:07:33;0.85;;;0.40;;
66169;SDS011;52971;44.024;20.456;2022-09-13T15:13:09;1.10;;;0.40;;
66169;SDS011;52971;44.024;20.456;2022-09-13T15:15:35;2.40;;;0.50;;
66169;SDS011;52971;44.024;20.456;2022-09-13T15:18:21;1.25;;;0.30;;
66169;SDS011;52971;44.024;20.456;2022-09-13T15:23:24;1.17;;;0.25;;
66169;SDS011;52971;44.024;20.456;2022-09-13T15:28:35;0.68;;;0.40;;
66169;SDS011;52971;44.024;20.456;2022-09-13T15:31:21;2.15;;;0.50;;
66169;SDS011;52971;44.024;20.456;2022-09-13T15:36:38;2.42;;;0.40;;
66169;SDS011;52971;44.024;20.456;2022-09-13T15:41:39;1.23;;;0.30;;
66169;SDS011;52971;44.024;20.456;2022-09-13T15:44:06;1.77;;;0.40;;
66169;SDS011;52971;44.024;20.456;2022-09-13T15:46:33;1.58;;;0.47;;
66169;SDS011;52971;44.024;20.456;2022-09-13T15:49:14;1.63;;;0.47;;
66169;SDS011;52971;44.024;20.456;2022-09-13T15:51:41;1.23;;;0.20;;
66169;SDS011;52971;44.024;20.456;2022-09-13T15:54:11;1.77;;;0.50;;
66169;SDS011;52971;44.024;20.456;2022-09-13T15:56:40;1.23;;;0.50;;
66169;SDS011;52971;44.024;20.456;2022-09-13T15:59:07;1.58;;;0.30;;
66169;SDS011;52971;44.024;20.456;2022-09-13T16:01:37;1.98;;;0.40;;
66169;SDS011;52971;44.024;20.456;2022-09-13T16:04:02;1.38;;;0.30;;
66169;SDS011;52971;44.024;20.456;2022-09-13T16:06:29;2.45;;;0.60;;
66169;SDS011;52971;44.024;20.456;2022-09-13T16:08:54;1.90;;;0.43;;
66169;SDS011;52971;44.024;20.456;2022-09-13T16:11:20;2.80;;;1.05;;
66169;SDS011;52971;44.024;20.456;2022-09-13T16:13:45;0.70;;;0.50;;
66169;SDS011;52971;44.024;20.456;2022-09-13T16:16:12;1.40;;;0.47;;
66169;SDS011;52971;44.024;20.456;2022-09-13T16:18:38;1.58;;;0.90;;
66169;SDS011;52971;44.024;20.456;2022-09-13T16:21:03;1.10;;;0.43;;
66169;SDS011;52971;44.024;20.456;2022-09-13T16:23:29;3.97;;;0.47;;
66169;SDS011;52971;44.024;20.456;2022-09-13T16:25:55;0.80;;;0.30;;
66169;SDS011;52971;44.024;20.456;2022-09-13T16:28:23;1.67;;;0.60;;
66169;SDS011;52971;44.024;20.456;2022-09-13T16:30:50;2.03;;;1.45;;
66169;SDS011;52971;44.024;20.456;2022-09-13T16:33:16;7.20;;;3.88;;
66169;SDS011;52971;44.024;20.456;2022-09-13T16:35:41;15.40;;;7.20;;
66169;SDS011;52971;44.024;20.456;2022-09-13T16:38:08;21.73;;;11.73;;
66169;SDS011;52971;44.024;20.456;2022-09-13T16:40:34;24.05;;;14.27;;
66169;SDS011;52971;44.024;20.456;2022-09-13T16:43:02;17.17;;;11.25;;
66169;SDS011;52971;44.024;20.456;2022-09-13T16:45:27;16.00;;;10.75;;
66169;SDS011;52971;44.024;20.456;2022-09-13T16:47:52;15.18;;;9.38;;
66169;SDS011;52971;44.024;20.456;2022-09-13T16:50:18;14.93;;;8.07;;
66169;SDS011;52971;44.024;20.456;2022-09-13T16:52:43;10.93;;;6.07;;
66169;SDS011;52971;44.024;20.456;2022-09-13T16:55:09;12.02;;;4.53;;
66169;SDS011;52971;44.024;20.456;2022-09-13T16:57:34;5.53;;;3.38;;
66169;SDS011;52971;44.024;20.456;2022-09-13T17:00:00;5.97;;;2.85;;
66169;SDS011;52971;44.024;20.456;2022-09-13T17:02:28;7.45;;;3.92;;
66169;SDS011;52971;44.024;20.456;2022-09-13T17:04:53;9.27;;;4.47;;
66169;SDS011;52971;44.024;20.456;2022-09-13T17:07:18;7.45;;;3.40;;
66169;SDS011;52971;44.024;20.456;2022-09-13T17:09:44;11.50;;;4.65;;
66169;SDS011;52971;44.024;20.456;2022-09-13T17:12:10;10.85;;;4.85;;
66169;SDS011;52971;44.024;20.456;2022-09-13T17:14:38;9.27;;;4.53;;
66169;SDS011;52971;44.024;20.456;2022-09-13T17:17:06;7.38;;;3.70;;
66169;SDS011;52971;44.024;20.456;2022-09-13T17:19:32;8.88;;;5.18;;
66169;SDS011;52971;44.024;20.456;2022-09-13T17:21:58;7.00;;;4.75;;
66169;SDS011;52971;44.024;20.456;2022-09-13T17:24:25;9.00;;;4.22;;
66169;SDS011;52971;44.024;20.456;2022-09-13T17:26:52;4.95;;;3.00;;
66169;SDS011;52971;44.024;20.456;2022-09-13T17:29:18;6.50;;;3.08;;
66169;SDS011;52971;44.024;20.456;2022-09-13T17:31:44;7.47;;;3.38;;
66169;SDS011;52971;44.024;20.456;2022-09-13T17:34:10;5.65;;;3.60;;
66169;SDS011;52971;44.024;20.456;2022-09-13T17:36:40;4.60;;;3.53;;
66169;SDS011;52971;44.024;20.456;2022-09-13T17:39:06;7.45;;;3.28;;
66169;SDS011;52971;44.024;20.456;2022-09-13T17:41:32;6.13;;;3.72;;
66169;SDS011;52971;44.024;20.456;2022-09-13T17:43:57;38.47;;;15.15;;
66169;SDS011;52971;44.024;20.456;2022-09-13T17:46:24;31.65;;;15.70;;
66169;SDS011;52971;44.024;20.456;2022-09-13T17:48:52;23.63;;;11.82;;
66169;SDS011;52971;44.024;20.456;2022-09-13T17:51:21;14.35;;;6.82;;
66169;SDS011;52971;44.024;20.456;2022-09-13T17:53:50;10.27;;;5.78;;
66169;SDS011;52971;44.024;20.456;2022-09-13T17:56:20;7.53;;;4.22;;
66169;SDS011;52971;44.024;20.456;2022-09-13T17:58:47;6.55;;;3.97;;
66169;SDS011;52971;44.024;20.456;2022-09-13T18:01:13;10.52;;;3.92;;
66169;SDS011;52971;44.024;20.456;2022-09-13T18:03:39;4.70;;;2.85;;
66169;SDS011;52971;44.024;20.456;2022-09-13T18:06:06;6.30;;;2.72;;
66169;SDS011;52971;44.024;20.456;2022-09-13T18:08:33;6.20;;;2.47;;
66169;SDS011;52971;44.024;20.456;2022-09-13T18:11:03;7.72;;;2.28;;
66169;SDS011;52971;44.024;20.456;2022-09-13T18:13:31;4.70;;;2.78;;
66169;SDS011;52971;44.024;20.456;2022-09-13T18:15:58;6.88;;;2.80;;
66169;SDS011;52971;44.024;20.456;2022-09-13T18:18:25;6.30;;;2.75;;